Waters, Michigan
Current Conditions -  °F | °C
As of 8:53 PM on Tuesday 21 Oct 2014 (Local Time) from KGLR Reporting Station
Clear Clear  
Wind Chill: 30°   Ceiling: Unl
Heat Index: 35°   Visibility: 10mi
Dew Point: 27°   Wind: 6mph
Humidity: 72%   Direction: 50°NE
Pressure: 30.26"   Gusts: NA
Location:  44.88°N, 84.7°W
Report Text: KGLR 220053Z AUTO 05005KT 10SM CLR 02/M03 A3026 RMK AO2 SLP259 T00171028
Loading
Personal Weather Stations






























Interactive Weather Map
Tropical Storm Tracking
New forecast layout! Learn more

10-Day Weather Forecast

Advertisements
Track Severe Weather on mobile